Time;durP1;ratioP1;P1;durP2;ratioP2;P2;SDS_P1;SDS_P2;PMS_P1;PMS_P2;Temp;Humidity;BMP_temperature;BMP_pressure;BME280_temperature;BME280_humidity;BME280_pressure;Samples;Min_cycle;Max_cycle;Signal;HPM_P1;HPM_P2
2021/08/20 00:03:01;;;;;;;32.83;12.82;;;;;;;17.35;71.84;101495.91;10538595;28;20040;-86
2021/08/20 00:08:02;;;;;;;17.55;11.68;;;;;;;17.20;71.14;101468.94;10520950;28;20040;-86
2021/08/20 00:13:03;;;;;;;23.90;11.02;;;;;;;17.30;71.49;101480.19;10520526;28;20127;-85
2021/08/20 00:18:04;;;;;;;21.27;13.55;;;;;;;17.30;71.57;101477.44;10522604;28;20115;-85
2021/08/20 00:23:04;;;;;;;24.83;11.90;;;;;;;17.37;71.40;101478.19;10488297;28;20378;-85
2021/08/20 00:28:08;;;;;;;22.05;14.70;;;;;;;17.35;72.06;101474.00;10506213;28;20043;-85
2021/08/20 00:33:08;;;;;;;20.25;13.30;;;;;;;17.28;72.67;101459.56;10505454;28;20066;-85
2021/08/20 00:38:09;;;;;;;23.08;13.05;;;;;;;17.25;71.81;101447.16;10521185;28;20043;-85
2021/08/20 00:43:10;;;;;;;19.65;12.18;;;;;;;17.36;71.44;101462.03;10538940;28;20040;-85
2021/08/20 00:48:10;;;;;;;13.35;10.60;;;;;;;17.26;72.71;101424.22;10503366;28;20136;-85
2021/08/20 00:53:11;;;;;;;37.08;13.23;;;;;;;17.76;72.99;101483.41;10501151;28;20036;-86
2021/08/20 00:58:12;;;;;;;22.75;14.02;;;;;;;17.79;73.00;101463.81;10517500;28;20059;-86
2021/08/20 01:03:13;;;;;;;15.98;12.98;;;;;;;17.76;72.02;101462.31;10517694;28;20652;-85
2021/08/20 01:08:14;;;;;;;20.00;14.23;;;;;;;17.70;73.19;101452.28;10501736;28;20508;-86
2021/08/20 01:13:16;;;;;;;45.83;17.40;;;;;;;17.73;74.01;101448.25;10502644;28;20451;-85
2021/08/20 01:18:25;;;;;;;30.98;16.83;;;;;;;17.94;73.38;101444.22;10517558;28;20089;-86
2021/08/20 01:23:26;;;;;;;34.00;16.75;;;;;;;18.09;72.69;101458.31;10486867;28;20092;-85
2021/08/20 01:28:27;;;;;;;40.15;17.95;;;;;;;18.25;73.46;101456.78;10487954;28;20036;-86
2021/08/20 01:33:28;;;;;;;17.55;14.32;;;;;;;18.39;73.00;101454.69;10502108;28;20466;-86
2021/08/20 01:38:35;;;;;;;27.25;16.52;;;;;;;18.23;72.50;101429.63;10503595;28;20074;-85
2021/08/20 01:43:36;;;;;;;28.35;17.15;;;;;;;18.42;73.01;101451.47;10522245;28;20486;-86
2021/08/20 01:48:50;;;;;;;27.17;14.77;;;;;;;18.40;72.66;101450.88;10502452;28;20115;-86
2021/08/20 01:53:51;;;;;;;25.00;16.52;;;;;;;18.45;73.55;101451.00;10518549;28;20577;-86
2021/08/20 01:58:55;;;;;;;23.38;15.10;;;;;;;18.47;73.32;101430.47;10483946;28;20040;-85
2021/08/20 02:03:56;;;;;;;23.30;13.60;;;;;;;18.64;73.22;101451.75;10500897;28;20447;-86
2021/08/20 02:08:56;;;;;;;29.63;14.98;;;;;;;18.61;72.58;101439.34;10501574;28;20047;-86
2021/08/20 02:13:58;;;;;;;17.38;13.75;;;;;;;18.35;72.64;101397.59;10516925;28;20044;-86
2021/08/20 02:18:58;;;;;;;19.98;12.55;;;;;;;18.68;73.05;101447.44;10533773;28;20031;-86
2021/08/20 02:23:59;;;;;;;23.75;14.43;;;;;;;18.81;72.66;101459.03;10498708;28;20044;-86
2021/08/20 02:29:00;;;;;;;25.45;14.30;;;;;;;18.80;72.75;101459.28;10516094;28;20118;-86
2021/08/20 02:34:00;;;;;;;19.88;13.52;;;;;;;18.62;72.93;101430.03;10534333;28;20145;-85
2021/08/20 02:39:01;;;;;;;22.05;12.55;;;;;;;18.83;72.59;101461.56;10499240;28;20028;-86
2021/08/20 02:44:01;;;;;;;21.70;15.77;;;;;;;18.69;72.65;101449.09;10498746;28;20448;-86
2021/08/20 02:49:02;;;;;;;27.70;16.83;;;;;;;18.50;72.80;101423.69;10514171;28;20042;-85
2021/08/20 02:54:03;;;;;;;24.40;14.27;;;;;;;18.41;72.62;101414.13;10514558;28;20034;-86
2021/08/20 02:59:03;;;;;;;28.38;16.73;;;;;;;18.44;72.66;101421.91;10480009;28;20032;-86
2021/08/20 03:04:04;;;;;;;27.00;17.63;;;;;;;18.44;72.53;101444.69;10480307;28;20028;-86
2021/08/20 03:09:05;;;;;;;29.75;17.20;;;;;;;18.09;73.35;101387.03;10496597;28;20036;-86
2021/08/20 03:14:05;;;;;;;21.63;16.38;;;;;;;18.39;73.62;101444.56;10511957;28;20034;-86
2021/08/20 03:19:06;;;;;;;31.30;17.25;;;;;;;18.44;73.21;101443.84;10479665;28;20104;-85
2021/08/20 03:24:07;;;;;;;29.50;16.77;;;;;;;18.18;73.15;101393.84;10529598;28;20055;-86
2021/08/20 03:29:08;;;;;;;21.08;16.40;;;;;;;18.03;73.14;101363.34;10527113;28;20517;-86
2021/08/20 03:34:08;;;;;;;25.90;17.05;;;;;;;18.38;73.34;101439.28;10491825;28;20445;-86
2021/08/20 03:39:09;;;;;;;34.08;18.30;;;;;;;18.40;73.08;101432.50;10507241;28;20040;-86
2021/08/20 03:44:10;;;;;;;25.58;14.85;;;;;;;18.43;72.94;101429.28;10488962;28;20191;-86
2021/08/20 03:49:10;;;;;;;25.20;16.02;;;;;;;17.84;72.98;101363.41;10524016;28;20060;-86
2021/08/20 03:54:11;;;;;;;27.33;14.35;;;;;;;18.33;73.41;101435.34;10506246;28;20088;-85
2021/08/20 03:59:12;;;;;;;30.05;16.02;;;;;;;18.41;73.60;101439.69;10488561;28;20087;-86
2021/08/20 04:04:13;;;;;;;23.85;12.98;;;;;;;18.47;73.56;101444.19;10524718;28;20366;-85
2021/08/20 04:09:14;;;;;;;15.80;11.85;;;;;;;18.18;72.92;101395.75;10506999;28;20108;-85
2021/08/20 04:14:15;;;;;;;21.02;15.07;;;;;;;18.10;73.08;101395.03;10493896;28;20025;-86
2021/08/20 04:19:15;;;;;;;17.77;11.00;;;;;;;18.44;73.52;101449.31;10510250;28;20064;-86
2021/08/20 04:24:17;;;;;;;19.20;11.80;;;;;;;18.31;73.49;101426.56;10493451;28;20055;-85
2021/08/20 04:29:18;;;;;;;10.10;9.13;;;;;;;18.52;73.23;101452.56;10476592;28;20476;-85
2021/08/20 04:34:20;;;;;;;26.33;10.70;;;;;;;18.65;73.34;101461.63;10451725;28;20054;-87
2021/08/20 04:39:21;;;;;;;14.60;9.77;;;;;;;18.61;73.29;101442.06;10492028;28;20079;-87
2021/08/20 04:44:22;;;;;;;16.38;9.82;;;;;;;18.83;73.27;101474.44;10516020;28;20050;-87
2021/08/20 04:49:23;;;;;;;10.18;7.88;;;;;;;18.97;73.33;101475.88;10514727;28;20447;-86
2021/08/20 04:54:25;;;;;;;15.95;9.57;;;;;;;19.07;73.07;101476.09;10495434;28;20141;-85
2021/08/20 04:59:26;;;;;;;14.80;7.72;;;;;;;19.05;73.32;101475.50;10495164;28;20094;-83
2021/08/20 05:04:27;;;;;;;11.65;6.25;;;;;;;19.10;73.83;101480.28;10495867;28;20046;-84
2021/08/20 05:09:27;;;;;;;7.25;6.53;;;;;;;19.18;73.75;101485.41;10512950;28;20048;-84
2021/08/20 05:14:28;;;;;;;5.50;5.00;;;;;;;19.14;73.44;101468.56;10533355;28;20206;-84
2021/08/20 05:19:29;;;;;;;12.90;5.25;;;;;;;18.97;73.19;101442.94;10498528;28;20097;-84
2021/08/20 05:24:29;;;;;;;19.27;5.70;;;;;;;19.19;73.46;101482.41;10532964;28;20074;-84
2021/08/20 05:29:30;;;;;;;5.05;4.15;;;;;;;19.23;73.14;101497.31;10532361;28;20443;-83
2021/08/20 05:34:30;;;;;;;6.75;3.83;;;;;;;19.29;72.93;101503.75;10533057;28;20151;-84
2021/08/20 05:39:30;;;;;;;8.43;5.07;;;;;;;19.38;72.69;101502.31;10513213;28;20050;-84
2021/08/20 05:44:31;;;;;;;5.55;3.85;;;;;;;19.65;72.22;101513.63;10497304;28;20114;-84
2021/08/20 05:49:31;;;;;;;4.57;4.18;;;;;;;20.29;71.81;101487.91;10530612;28;20031;-84
2021/08/20 05:54:32;;;;;;;5.28;4.57;;;;;;;21.23;71.36;101504.59;10512161;28;20142;-84
2021/08/20 05:59:32;;;;;;;20.48;5.13;;;;;;;22.64;68.04;101505.66;10533614;28;20122;-84
2021/08/20 06:04:33;;;;;;;9.15;3.78;;;;;;;23.28;66.74;101493.69;10531195;28;20115;-84
2021/08/20 06:09:33;;;;;;;3.03;2.83;;;;;;;22.19;67.27;101517.09;10496553;28;20047;-85
2021/08/20 06:14:34;;;;;;;4.57;3.25;;;;;;;21.58;68.64;101529.06;10530215;28;20521;-84
2021/08/20 06:19:34;;;;;;;11.88;4.13;;;;;;;21.77;69.21;101528.75;10530444;28;20430;-85
2021/08/20 06:24:35;;;;;;;7.95;5.03;;;;;;;21.75;69.28;101503.34;10530278;28;20139;-85
2021/08/20 06:29:35;;;;;;;16.17;7.13;;;;;;;21.44;69.52;101529.69;10530708;28;20155;-85
2021/08/20 06:34:36;;;;;;;15.48;7.70;;;;;;;20.97;69.86;101497.88;10494399;28;20032;-86
2021/08/20 06:39:36;;;;;;;16.63;9.65;;;;;;;20.66;71.00;101535.91;10496896;28;20081;-86
2021/08/20 06:44:36;;;;;;;13.55;9.05;;;;;;;21.12;70.98;101528.41;10497075;28;20118;-86
2021/08/20 06:49:37;;;;;;;17.83;7.80;;;;;;;21.62;69.72;101542.31;10496666;28;20035;-86
2021/08/20 06:54:38;;;;;;;12.27;8.43;;;;;;;21.40;69.60;101540.38;10496669;28;20075;-85
2021/08/20 06:59:38;;;;;;;11.20;8.60;;;;;;;21.16;70.32;101547.19;10530736;28;20119;-85
2021/08/20 07:04:38;;;;;;;14.90;8.18;;;;;;;20.75;70.77;101505.22;10529765;28;20062;-85
2021/08/20 07:09:39;;;;;;;11.68;8.40;;;;;;;20.81;70.66;101505.06;10510776;28;20036;-86
2021/08/20 07:14:39;;;;;;;12.77;10.10;;;;;;;21.19;71.38;101560.44;10473666;28;20048;-86
2021/08/20 07:19:40;;;;;;;10.20;9.18;;;;;;;21.32;70.42;101544.38;10523899;28;20108;-85
2021/08/20 07:24:41;;;;;;;9.57;8.27;;;;;;;21.75;70.85;101556.56;10505523;28;20114;-86
2021/08/20 07:29:42;;;;;;;9.10;7.57;;;;;;;21.75;69.76;101566.75;10524233;28;20096;-85
2021/08/20 07:34:43;;;;;;;16.92;8.77;;;;;;;21.96;69.47;101557.66;10488581;28;20101;-86
2021/08/20 07:39:43;;;;;;;8.38;7.30;;;;;;;21.66;69.10;101532.44;10488589;28;20202;-86
2021/08/20 07:44:44;;;;;;;10.48;7.22;;;;;;;21.62;68.96;101523.03;10505345;28;20048;-86
2021/08/20 07:49:44;;;;;;;7.68;6.30;;;;;;;23.23;68.82;101554.47;10490414;28;20083;-86
2021/08/20 07:54:45;;;;;;;9.57;6.20;;;;;;;24.88;64.75;101559.44;10508329;28;20032;-85
2021/08/20 07:59:46;;;;;;;17.42;5.43;;;;;;;25.42;63.85;101558.84;10496843;28;20031;-85
2021/08/20 08:04:46;;;;;;;5.85;3.70;;;;;;;25.95;65.15;101560.06;10513441;28;20448;-86
2021/08/20 08:09:47;;;;;;;8.70;3.15;;;;;;;25.78;61.12;101508.78;10512810;28;20142;-86
2021/08/20 08:14:48;;;;;;;10.20;4.03;;;;;;;25.07;59.48;101566.06;10513979;28;20047;-86
2021/08/20 08:19:48;;;;;;;6.00;2.90;;;;;;;24.65;58.79;101575.50;10520749;28;20466;-86
2021/08/20 08:24:48;;;;;;;20.63;4.28;;;;;;;25.24;60.96;101577.75;10538500;28;20044;-86
2021/08/20 08:29:49;;;;;;;3.92;3.53;;;;;;;26.70;58.88;101563.78;10520017;28;20084;-86
2021/08/20 08:34:49;;;;;;;9.23;3.90;;;;;;;27.34;60.23;101570.97;10537591;28;20351;-86
2021/08/20 08:39:53;;;;;;;5.38;3.25;;;;;;;26.31;59.42;101575.69;10520143;28;20032;-86
2021/08/20 08:44:55;;;;;;;2.42;2.17;;;;;;;25.45;58.32;101586.00;10502052;28;20112;-87
2021/08/20 08:49:55;;;;;;;3.90;3.47;;;;;;;24.58;59.03;101591.56;10519396;28;20024;-86
2021/08/20 08:55:00;;;;;;;3.55;3.15;;;;;;;24.52;61.55;101559.44;10517947;28;20040;-86
2021/08/20 09:00:05;;;;;;;5.40;3.92;;;;;;;25.44;59.06;101587.94;10518664;28;20059;-86
2021/08/20 09:05:25;;;;;;;8.73;5.28;;;;;;;25.99;61.76;101596.38;10503805;28;20050;-86
2021/08/20 09:10:25;;;;;;;5.57;5.07;;;;;;;26.81;57.08;101595.94;10503029;28;20035;-86
2021/08/20 09:15:31;;;;;;;5.80;5.20;;;;;;;27.34;55.35;101590.44;10499820;28;20035;-86
2021/08/20 09:20:36;;;;;;;12.65;5.03;;;;;;;28.48;56.65;101595.19;10499287;28;20462;-86
2021/08/20 09:25:45;;;;;;;6.47;3.35;;;;;;;28.07;54.31;101544.78;10489768;28;20044;-87
2021/08/20 09:30:55;;;;;;;5.05;4.57;;;;;;;27.03;57.28;101560.16;10490270;28;20380;-86
2021/08/20 09:35:57;;;;;;;8.32;3.45;;;;;;;26.54;54.42;101597.22;10492618;28;20089;-86
2021/08/20 09:41:07;;;;;;;6.72;3.47;;;;;;;26.14;54.98;101549.13;10492109;28;20241;-87
2021/08/20 09:46:16;;;;;;;6.22;5.28;;;;;;;26.24;56.00;101566.84;10476976;28;20044;-87
2021/08/20 09:51:42;;;;;;;14.52;4.13;;;;;;;26.24;58.62;101616.81;10459654;28;20487;-87
2021/08/20 09:56:43;;;;;;;4.40;3.42;;;;;;;26.03;55.89;101599.44;10493137;28;20056;-86
2021/08/20 10:01:45;;;;;;;7.82;4.40;;;;;;;26.06;59.06;101608.00;10490786;28;20068;-87
2021/08/20 10:06:47;;;;;;;3.47;3.28;;;;;;;25.34;56.69;101554.72;10492021;28;20048;-86
2021/08/20 10:11:49;;;;;;;5.60;4.90;;;;;;;24.91;58.21;101620.66;10458240;28;20494;-87
2021/08/20 10:16:50;;;;;;;6.28;5.15;;;;;;;24.46;59.89;101629.75;10493315;28;20043;-86
2021/08/20 10:21:51;;;;;;;7.35;5.32;;;;;;;23.70;60.49;101556.38;10473047;28;20111;-86
2021/08/20 10:26:54;;;;;;;7.35;5.35;;;;;;;23.90;60.72;101599.91;10528752;28;20467;-86
2021/08/20 10:31:59;;;;;;;13.75;4.78;;;;;;;24.25;61.09;101635.19;10481923;28;20115;-86
2021/08/20 10:37:16;;;;;;;4.88;4.47;;;;;;;24.19;61.97;101622.44;10499863;28;20136;-87
2021/08/20 10:42:18;;;;;;;13.05;5.72;;;;;;;24.36;59.89;101617.50;10518129;28;20060;-86
2021/08/20 10:47:25;;;;;;;10.43;5.97;;;;;;;24.93;59.49;101584.38;10484320;28;20340;-86
2021/08/20 10:52:30;;;;;;;5.00;4.53;;;;;;;25.35;59.22;101609.03;10482730;28;20161;-86
2021/08/20 10:57:39;;;;;;;6.95;4.65;;;;;;;24.62;59.76;101578.81;10516624;28;20066;-87
2021/08/20 11:02:39;;;;;;;5.07;4.55;;;;;;;24.52;59.41;101623.13;10516134;28;20553;-88
2021/08/20 11:07:59;;;;;;;7.47;5.25;;;;;;;26.10;57.79;101633.25;10515665;28;20116;-86
2021/08/20 11:13:00;;;;;;;12.65;5.88;;;;;;;26.95;55.10;101630.25;10516147;28;20410;-87
2021/08/20 11:18:02;;;;;;;9.98;4.53;;;;;;;26.48;54.74;101628.91;10499563;28;20043;-87
2021/08/20 11:23:12;;;;;;;6.43;4.80;;;;;;;25.90;54.67;101623.91;10483695;28;20056;-86
2021/08/20 11:28:26;;;;;;;8.20;4.72;;;;;;;26.82;55.32;101611.47;10538383;28;20108;-87
2021/08/20 11:33:27;;;;;;;5.35;4.72;;;;;;;27.44;51.77;101583.94;10517771;28;20077;-87
2021/08/20 11:38:47;;;;;;;8.52;5.10;;;;;;;28.09;51.91;101617.72;10516438;28;20024;-88
2021/08/20 11:43:57;;;;;;;4.80;3.83;;;;;;;28.32;51.14;101646.66;10519253;28;20028;-88
2021/08/20 11:49:03;;;;;;;6.75;4.15;;;;;;;27.13;54.71;101567.56;10499307;28;20032;-88
2021/08/20 11:54:06;;;;;;;6.10;5.30;;;;;;;26.98;54.85;101660.25;10514691;28;20036;-86
2021/08/20 11:59:11;;;;;;;10.60;5.10;;;;;;;26.25;53.80;101536.00;10499699;28;20035;-87
2021/08/20 12:04:15;;;;;;;4.50;4.10;;;;;;;28.76;50.82;101678.13;10515918;28;20021;-89
2021/08/20 12:09:19;;;;;;;4.20;3.80;;;;;;;30.12;49.10;101665.69;10500550;28;20142;-88
2021/08/20 12:14:37;;;;;;;3.53;3.28;;;;;;;30.31;48.74;101579.00;10501039;28;20052;-89
2021/08/20 12:20:21;;;;;;;;;;;;;;;;;;;;;
2021/08/20 12:26:40;;;;;;;;;;;;;;;;;;;;;
2021/08/20 12:31:35;;;;;;;3.05;2.85;;;;;;;29.37;48.17;101680.78;10485284;28;20467;-90
2021/08/20 12:36:47;;;;;;;2.45;2.35;;;;;;;28.81;52.02;101670.50;10474466;28;20471;-87
2021/08/20 12:42:18;;;;;;;4.40;2.03;;;;;;;28.17;52.49;101681.09;10475514;28;20037;-87
2021/08/20 12:47:28;;;;;;;3.90;2.50;;;;;;;27.52;53.24;101677.91;10474502;28;20097;-86
2021/08/20 12:52:32;;;;;;;4.05;2.33;;;;;;;27.12;52.35;101647.38;10468180;28;20386;-88
2021/08/20 12:57:33;;;;;;;6.20;2.97;;;;;;;27.03;52.01;101643.56;10468806;28;20037;-86
2021/08/20 13:02:33;;;;;;;2.80;2.55;;;;;;;27.33;52.58;101658.34;10453592;28;20500;-87
2021/08/20 13:07:34;;;;;;;5.05;2.72;;;;;;;27.88;53.23;101678.38;10458256;28;20040;-89
2021/08/20 13:12:34;;;;;;;7.57;2.67;;;;;;;28.27;51.56;101671.78;10475885;28;20501;-89
2021/08/20 13:17:35;;;;;;;6.93;3.55;;;;;;;28.22;51.78;101681.06;10475253;28;20036;-88
2021/08/20 13:22:35;;;;;;;2.90;2.17;;;;;;;27.93;56.14;101683.09;10473677;28;20060;-88
2021/08/20 13:27:36;;;;;;;2.83;2.25;;;;;;;27.80;52.11;101673.47;10491542;28;20053;-88
2021/08/20 13:32:36;;;;;;;2.67;2.28;;;;;;;27.40;53.84;101681.06;10476499;28;20040;-88
2021/08/20 13:37:37;;;;;;;5.07;1.80;;;;;;;27.03;54.98;101614.94;10495264;28;20467;-88
2021/08/20 13:42:49;;;;;;;2.67;2.47;;;;;;;26.96;54.85;101687.50;10459963;28;20526;-88
2021/08/20 13:48:01;;;;;;;2.40;2.05;;;;;;;26.03;56.86;101652.97;10476957;28;20121;-88
2021/08/20 13:53:06;;;;;;;3.10;2.80;;;;;;;25.43;57.88;101691.66;10478023;28;20039;-88
2021/08/20 13:58:18;;;;;;;4.63;3.53;;;;;;;25.05;57.98;101716.00;10478622;28;20405;-87
2021/08/20 14:03:19;;;;;;;7.35;4.38;;;;;;;24.81;59.08;101698.22;10493151;28;20068;-87
2021/08/20 14:08:21;;;;;;;5.00;4.55;;;;;;;24.82;57.77;101706.28;10460269;28;20084;-87
2021/08/20 14:13:21;;;;;;;6.55;4.88;;;;;;;25.09;57.76;101702.44;10491612;28;20037;-86
2021/08/20 14:18:22;;;;;;;7.32;4.75;;;;;;;25.06;57.31;101594.91;10459994;28;20113;-86
2021/08/20 14:23:24;;;;;;;6.60;3.60;;;;;;;25.77;57.38;101717.97;10499335;28;20056;-86
2021/08/20 14:28:25;;;;;;;5.22;4.65;;;;;;;25.12;56.65;101634.53;10518926;28;20032;-88
2021/08/20 14:33:27;;;;;;;15.10;5.10;;;;;;;24.91;58.02;101683.56;10536421;28;20054;-87
2021/08/20 14:38:27;;;;;;;41.03;4.82;;;;;;;24.89;57.85;101722.63;10483895;28;20103;-88
2021/08/20 14:43:28;;;;;;;4.70;3.60;;;;;;;25.04;57.87;101717.09;10513691;28;20420;-87
2021/08/20 14:48:29;;;;;;;9.82;4.97;;;;;;;24.97;56.97;101688.00;10496517;28;20475;-87
2021/08/20 14:53:29;;;;;;;7.50;4.35;;;;;;;25.19;57.32;101633.16;10479315;28;20138;-87
2021/08/20 14:58:30;;;;;;;3.72;3.40;;;;;;;25.87;55.56;101729.06;10495984;28;20457;-87
2021/08/20 15:03:32;;;;;;;3.45;3.15;;;;;;;25.48;55.76;101661.13;10512802;28;20478;-87
2021/08/20 15:08:32;;;;;;;3.58;3.13;;;;;;;25.98;56.33;101744.59;10480379;28;20031;-88
2021/08/20 15:13:35;;;;;;;4.25;3.78;;;;;;;25.79;54.51;101618.66;10479772;28;20060;-87
2021/08/20 15:18:39;;;;;;;4.75;3.83;;;;;;;26.35;53.67;101665.63;10497291;28;20048;-88
2021/08/20 15:23:41;;;;;;;7.25;4.07;;;;;;;25.51;52.31;101540.50;10494560;28;20381;-88
2021/08/20 15:28:41;;;;;;;4.57;4.03;;;;;;;25.90;53.54;101610.03;10496017;28;20185;-87
2021/08/20 15:33:42;;;;;;;3.47;3.17;;;;;;;26.28;53.38;101671.50;10495449;28;20061;-87
2021/08/20 15:38:43;;;;;;;4.68;4.38;;;;;;;26.59;54.00;101722.19;10505383;28;20090;-87
2021/08/20 15:43:48;;;;;;;6.28;4.57;;;;;;;26.44;55.08;101730.56;10491810;28;20028;-87
2021/08/20 15:48:49;;;;;;;11.15;4.43;;;;;;;25.24;54.99;101624.88;10497940;28;20032;-87
2021/08/20 15:53:51;;;;;;;5.13;4.50;;;;;;;25.49;56.12;101756.25;10496086;28;20032;-87
2021/08/20 15:58:52;;;;;;;4.65;4.28;;;;;;;24.98;56.03;101659.19;10496200;28;20048;-87
2021/08/20 16:03:53;;;;;;;3.95;3.53;;;;;;;25.73;55.24;101726.84;10500178;28;20047;-86
2021/08/20 16:08:55;;;;;;;5.85;4.47;;;;;;;25.63;55.19;101689.97;10498259;28;20044;-87
2021/08/20 16:13:56;;;;;;;4.32;3.92;;;;;;;25.42;55.44;101730.75;10486837;28;20521;-86
2021/08/20 16:19:00;;;;;;;10.73;4.78;;;;;;;24.97;56.14;101719.31;10521151;28;20047;-87
2021/08/20 16:24:01;;;;;;;6.47;4.53;;;;;;;24.46;58.07;101734.94;10503555;28;20052;-86
2021/08/20 16:29:02;;;;;;;7.20;5.05;;;;;;;24.18;57.65;101739.75;10504421;28;20040;-87
2021/08/20 16:34:05;;;;;;;4.88;4.43;;;;;;;23.92;58.30;101749.03;10504680;28;20376;-86
2021/08/20 16:39:06;;;;;;;8.57;5.63;;;;;;;23.84;58.27;101726.28;10529621;28;20472;-86
2021/08/20 16:44:07;;;;;;;5.72;4.88;;;;;;;23.65;58.68;101730.56;10533402;28;20036;-86
2021/08/20 16:49:11;;;;;;;5.05;4.57;;;;;;;22.73;59.05;101609.00;10532056;28;20438;-86
2021/08/20 16:54:11;;;;;;;5.28;4.07;;;;;;;23.52;60.05;101742.06;10533217;28;20028;-85
2021/08/20 16:59:12;;;;;;;6.80;4.70;;;;;;;22.68;60.12;101632.94;10501083;28;20085;-85
2021/08/20 17:04:13;;;;;;;5.70;4.85;;;;;;;22.79;59.74;101678.09;10520375;28;20056;-86
2021/08/20 17:09:13;;;;;;;6.38;5.78;;;;;;;22.79;59.83;101714.00;10516101;28;20032;-86
2021/08/20 17:14:14;;;;;;;7.30;6.57;;;;;;;22.88;59.89;101748.34;10516143;28;20481;-86
2021/08/20 17:19:17;;;;;;;6.70;5.00;;;;;;;21.96;60.15;101628.53;10518944;28;20104;-87
2021/08/20 17:24:18;;;;;;;11.38;6.63;;;;;;;22.71;60.20;101765.78;10538820;28;20139;-86
2021/08/20 17:29:19;;;;;;;16.67;6.78;;;;;;;22.50;60.85;101734.34;10530014;28;20028;-86
2021/08/20 17:34:20;;;;;;;16.45;6.50;;;;;;;22.47;61.00;101751.44;10510486;28;20035;-86
2021/08/20 17:39:24;;;;;;;7.80;5.25;;;;;;;22.25;61.32;101747.81;10510255;28;20036;-86
2021/08/20 17:44:25;;;;;;;9.18;7.40;;;;;;;21.90;61.50;101713.09;10527733;28;20085;-86
2021/08/20 17:49:26;;;;;;;9.70;7.88;;;;;;;22.05;62.03;101767.66;10524829;28;20036;-86
2021/08/20 17:54:26;;;;;;;12.65;8.57;;;;;;;22.00;62.22;101782.19;10512146;28;20036;-86
2021/08/20 17:59:30;;;;;;;9.52;6.85;;;;;;;21.85;62.47;101761.81;10538915;28;20361;-86
2021/08/20 18:04:39;;;;;;;9.68;7.28;;;;;;;21.42;62.14;101719.25;10510033;28;20123;-86
2021/08/20 18:09:43;;;;;;;8.10;6.15;;;;;;;21.64;62.45;101768.94;10510629;28;20024;-86
2021/08/20 18:14:44;;;;;;;10.57;9.48;;;;;;;21.50;62.75;101776.69;10509423;28;20109;-86
2021/08/20 18:19:52;;;;;;;11.77;8.52;;;;;;;21.31;63.04;101778.78;10542432;28;20056;-86
2021/08/20 18:24:52;;;;;;;13.35;9.57;;;;;;;21.22;63.23;101788.53;10507284;28;20048;-86
2021/08/20 18:29:53;;;;;;;13.18;10.23;;;;;;;20.85;63.43;101742.16;10506773;28;20083;-86
2021/08/20 18:34:54;;;;;;;9.02;8.15;;;;;;;20.42;63.46;101689.25;10523980;28;20107;-85
2021/08/20 18:39:54;;;;;;;15.50;7.97;;;;;;;20.85;63.73;101787.03;10522829;28;20047;-85
2021/08/20 18:44:54;;;;;;;13.52;5.60;;;;;;;20.72;64.00;101791.97;10523253;28;20050;-84
2021/08/20 18:49:55;;;;;;;12.63;6.60;;;;;;;20.57;64.28;101789.72;10467113;28;20067;-85
2021/08/20 18:54:55;;;;;;;8.48;7.32;;;;;;;20.42;64.31;101795.69;10540979;28;20055;-85
2021/08/20 18:59:56;;;;;;;8.25;6.97;;;;;;;20.31;64.54;101808.41;10489174;28;20043;-84
2021/08/20 19:04:57;;;;;;;9.25;8.10;;;;;;;20.17;65.07;101807.81;10541359;28;20059;-85
2021/08/20 19:09:57;;;;;;;9.10;7.50;;;;;;;19.80;65.37;101776.13;10489389;28;20088;-84
2021/08/20 19:14:59;;;;;;;16.58;8.88;;;;;;;19.92;65.32;101816.28;10522040;28;20064;-84
2021/08/20 19:20:00;;;;;;;9.77;7.57;;;;;;;19.85;65.87;101832.06;10539646;28;20028;-84
2021/08/20 19:25:02;;;;;;;15.70;9.27;;;;;;;19.77;65.92;101837.91;10523010;28;20510;-85
2021/08/20 19:30:04;;;;;;;12.60;9.25;;;;;;;19.65;65.91;101837.03;10521921;28;20513;-85
2021/08/20 19:35:08;;;;;;;14.90;10.23;;;;;;;19.58;66.33;101837.09;10504109;28;20044;-85
2021/08/20 19:40:09;;;;;;;12.20;9.77;;;;;;;19.52;66.28;101854.53;10488524;28;20039;-85
2021/08/20 19:45:11;;;;;;;13.15;10.63;;;;;;;19.47;66.55;101846.16;10504941;28;20068;-85
2021/08/20 19:50:12;;;;;;;11.23;9.70;;;;;;;19.40;66.35;101857.25;10520712;28;20036;-85
2021/08/20 19:55:13;;;;;;;22.23;11.25;;;;;;;19.33;66.80;101850.16;10505894;28;20039;-84
2021/08/20 20:00:15;;;;;;;21.20;12.23;;;;;;;19.25;66.51;101843.09;10521379;28;20136;-84
2021/08/20 20:05:15;;;;;;;17.98;11.15;;;;;;;19.22;67.06;101849.88;10540436;28;20380;-85
2021/08/20 20:10:27;;;;;;;16.90;12.30;;;;;;;18.79;66.13;101795.97;10506955;28;20040;-84
2021/08/20 20:15:29;;;;;;;16.27;10.90;;;;;;;19.04;66.55;101856.22;10527854;28;20040;-84
2021/08/20 20:20:31;;;;;;;19.40;11.20;;;;;;;18.95;67.34;101856.78;10548108;28;20490;-85
2021/08/20 20:25:33;;;;;;;14.25;12.73;;;;;;;18.56;67.18;101810.34;10547028;28;20082;-85
2021/08/20 20:30:34;;;;;;;15.80;12.10;;;;;;;18.71;67.31;101836.56;10512333;28;20118;-85
2021/08/20 20:35:35;;;;;;;17.67;13.90;;;;;;;18.77;68.01;101852.16;10546132;28;20036;-85
2021/08/20 20:40:36;;;;;;;15.55;11.95;;;;;;;18.54;67.43;101831.69;10494949;28;20074;-84
2021/08/20 20:45:37;;;;;;;24.25;17.42;;;;;;;18.73;67.59;101857.25;10528172;28;20035;-84
2021/08/20 20:50:37;;;;;;;18.70;13.73;;;;;;;18.45;67.67;101833.06;10510462;28;20429;-84
2021/08/20 20:55:38;;;;;;;19.58;16.00;;;;;;;18.57;67.76;101864.16;10511329;28;20137;-84
2021/08/20 21:00:38;;;;;;;24.45;15.20;;;;;;;18.43;67.79;101868.09;10511051;28;20163;-84
2021/08/20 21:05:39;;;;;;;26.83;15.85;;;;;;;18.41;67.99;101863.88;10527255;28;20027;-85
2021/08/20 21:10:40;;;;;;;20.35;14.38;;;;;;;18.34;67.92;101872.19;10527040;28;20039;-84
2021/08/20 21:15:42;;;;;;;24.60;15.82;;;;;;;18.34;68.63;101859.28;10510575;28;20414;-84
2021/08/20 21:20:43;;;;;;;23.33;17.17;;;;;;;18.13;68.42;101829.56;10526571;28;20487;-85
2021/08/20 21:25:44;;;;;;;17.25;15.50;;;;;;;18.34;67.97;101863.94;10526687;28;20135;-85
2021/08/20 21:30:48;;;;;;;29.45;17.50;;;;;;;18.24;68.13;101848.00;10526581;28;20028;-84
2021/08/20 21:35:51;;;;;;;29.38;17.60;;;;;;;18.31;68.09;101892.69;10526555;28;20032;-84
2021/08/20 21:40:52;;;;;;;28.10;17.70;;;;;;;18.19;68.75;101856.09;10524526;28;20036;-84
2021/08/20 21:45:52;;;;;;;33.05;17.33;;;;;;;18.15;68.35;101860.31;10518448;28;20028;-84
2021/08/20 21:50:56;;;;;;;23.73;17.10;;;;;;;18.03;68.70;101853.91;10537346;28;20036;-84
2021/08/20 21:55:56;;;;;;;22.63;14.68;;;;;;;17.38;68.69;101753.66;10502899;28;20390;-84
2021/08/20 22:01:03;;;;;;;30.75;16.67;;;;;;;17.94;68.28;101858.84;10519229;28;20031;-85
2021/08/20 22:06:04;;;;;;;;;;;;;;;17.84;67.16;101859.34;10520577;28;20135;-85
2021/08/20 22:11:08;;;;;;;16.95;13.88;;;;;;;17.25;69.06;101752.91;10520321;28;19943;-85
2021/08/20 22:16:09;;;;;;;21.10;15.45;;;;;;;17.84;68.36;101864.81;10505205;28;20027;-85
2021/08/20 22:21:10;;;;;;;18.35;14.98;;;;;;;17.82;68.34;101858.72;10521209;28;20515;-85
2021/08/20 22:26:12;;;;;;;27.73;17.05;;;;;;;17.70;68.78;101863.19;10524149;28;20044;-85
2021/08/20 22:31:13;;;;;;;20.90;17.63;;;;;;;17.77;68.93;101864.03;10527787;28;20039;-84
2021/08/20 22:36:14;;;;;;;21.05;18.70;;;;;;;17.80;69.09;101873.69;10533804;28;20051;-84
2021/08/20 22:41:15;;;;;;;32.08;20.52;;;;;;;17.70;69.67;101859.59;10536085;28;20380;-85
2021/08/20 22:46:16;;;;;;;28.92;19.65;;;;;;;17.86;69.58;101872.78;10527773;28;20451;-85
2021/08/20 22:51:16;;;;;;;29.52;20.60;;;;;;;17.93;69.90;101876.31;10506403;28;20056;-85
2021/08/20 22:56:17;;;;;;;24.23;19.13;;;;;;;18.02;70.04;101874.16;10506722;28;20460;-85
2021/08/20 23:01:18;;;;;;;28.52;20.38;;;;;;;17.98;69.36;101860.06;10506699;28;20459;-85